sensor_id;sensor_type;location;lat;lon;timestamp;P1;durP1;ratioP1;P2;durP2;ratioP2
29934;SDS011;19905;53.370;-6.314;2023-10-09T06:01:36;12.98;;;7.70;;
29934;SDS011;19905;53.370;-6.314;2023-10-09T06:04:44;12.10;;;7.43;;
29934;SDS011;19905;53.370;-6.314;2023-10-09T06:13:20;11.40;;;7.53;;
29934;SDS011;19905;53.370;-6.314;2023-10-09T06:16:02;15.82;;;7.22;;
29934;SDS011;19905;53.370;-6.314;2023-10-09T06:18:46;10.98;;;6.90;;
29934;SDS011;19905;53.370;-6.314;2023-10-09T06:21:35;12.20;;;7.40;;
29934;SDS011;19905;53.370;-6.314;2023-10-09T06:24:07;12.40;;;7.53;;
29934;SDS011;19905;53.370;-6.314;2023-10-09T06:26:46;12.65;;;7.28;;
29934;SDS011;19905;53.370;-6.314;2023-10-09T06:29:33;13.25;;;7.35;;
29934;SDS011;19905;53.370;-6.314;2023-10-09T06:32:02;11.85;;;6.72;;
29934;SDS011;19905;53.370;-6.314;2023-10-09T06:34:53;13.38;;;6.68;;
29934;SDS011;19905;53.370;-6.314;2023-10-09T06:37:42;11.50;;;6.90;;
29934;SDS011;19905;53.370;-6.314;2023-10-09T06:40:25;12.52;;;7.18;;
29934;SDS011;19905;53.370;-6.314;2023-10-09T06:43:11;12.15;;;7.30;;
29934;SDS011;19905;53.370;-6.314;2023-10-09T06:45:54;11.77;;;7.45;;
29934;SDS011;19905;53.370;-6.314;2023-10-09T06:48:46;14.90;;;8.23;;
29934;SDS011;19905;53.370;-6.314;2023-10-09T06:51:24;13.55;;;7.80;;
29934;SDS011;19905;53.370;-6.314;2023-10-09T06:54:09;13.50;;;8.25;;
29934;SDS011;19905;53.370;-6.314;2023-10-09T06:56:43;14.40;;;7.60;;
29934;SDS011;19905;53.370;-6.314;2023-10-09T06:59:29;15.80;;;7.75;;
29934;SDS011;19905;53.370;-6.314;2023-10-09T07:02:29;12.55;;;7.47;;
29934;SDS011;19905;53.370;-6.314;2023-10-09T07:05:13;13.30;;;7.70;;
29934;SDS011;19905;53.370;-6.314;2023-10-09T07:07:46;10.90;;;7.60;;
29934;SDS011;19905;53.370;-6.314;2023-10-09T07:10:22;13.88;;;7.78;;
29934;SDS011;19905;53.370;-6.314;2023-10-09T07:13:06;11.68;;;8.05;;
29934;SDS011;19905;53.370;-6.314;2023-10-09T07:15:34;11.30;;;7.68;;
29934;SDS011;19905;53.370;-6.314;2023-10-09T07:18:20;12.65;;;8.05;;
29934;SDS011;19905;53.370;-6.314;2023-10-09T07:20:52;10.70;;;7.68;;
29934;SDS011;19905;53.370;-6.314;2023-10-09T07:23:40;14.20;;;8.07;;
29934;SDS011;19905;53.370;-6.314;2023-10-09T07:26:16;15.77;;;8.05;;
29934;SDS011;19905;53.370;-6.314;2023-10-09T07:28:50;13.15;;;7.93;;
29934;SDS011;19905;53.370;-6.314;2023-10-09T07:31:28;13.68;;;7.75;;
29934;SDS011;19905;53.370;-6.314;2023-10-09T07:34:07;15.52;;;8.27;;
29934;SDS011;19905;53.370;-6.314;2023-10-09T07:36:50;12.85;;;7.55;;
29934;SDS011;19905;53.370;-6.314;2023-10-09T07:39:24;14.98;;;7.63;;
29934;SDS011;19905;53.370;-6.314;2023-10-09T07:42:04;14.40;;;7.50;;
29934;SDS011;19905;53.370;-6.314;2023-10-09T07:44:56;15.05;;;7.50;;
29934;SDS011;19905;53.370;-6.314;2023-10-09T07:47:24;13.02;;;7.78;;
29934;SDS011;19905;53.370;-6.314;2023-10-09T07:50:28;17.85;;;7.28;;
29934;SDS011;19905;53.370;-6.314;2023-10-09T07:53:05;11.82;;;6.75;;
29934;SDS011;19905;53.370;-6.314;2023-10-09T07:55:46;13.23;;;6.82;;
29934;SDS011;19905;53.370;-6.314;2023-10-09T07:58:22;16.98;;;7.07;;
29934;SDS011;19905;53.370;-6.314;2023-10-09T08:00:53;12.57;;;6.75;;
29934;SDS011;19905;53.370;-6.314;2023-10-09T08:03:35;12.20;;;6.75;;
29934;SDS011;19905;53.370;-6.314;2023-10-09T08:06:04;9.90;;;5.65;;
29934;SDS011;19905;53.370;-6.314;2023-10-09T08:08:56;13.85;;;6.45;;
29934;SDS011;19905;53.370;-6.314;2023-10-09T08:11:47;15.13;;;6.47;;
29934;SDS011;19905;53.370;-6.314;2023-10-09T08:15:02;17.08;;;6.38;;
29934;SDS011;19905;53.370;-6.314;2023-10-09T08:17:48;17.45;;;7.07;;
29934;SDS011;19905;53.370;-6.314;2023-10-09T08:20:21;11.52;;;6.10;;
29934;SDS011;19905;53.370;-6.314;2023-10-09T08:22:52;13.77;;;6.88;;
29934;SDS011;19905;53.370;-6.314;2023-10-09T08:25:23;13.52;;;7.40;;
29934;SDS011;19905;53.370;-6.314;2023-10-09T08:27:57;14.88;;;7.35;;
29934;SDS011;19905;53.370;-6.314;2023-10-09T08:30:47;22.38;;;7.60;;
29934;SDS011;19905;53.370;-6.314;2023-10-09T08:33:30;15.88;;;7.78;;
29934;SDS011;19905;53.370;-6.314;2023-10-09T08:36:13;15.50;;;7.50;;
29934;SDS011;19905;53.370;-6.314;2023-10-09T08:38:47;13.93;;;6.95;;
29934;SDS011;19905;53.370;-6.314;2023-10-09T08:41:15;15.07;;;7.30;;
29934;SDS011;19905;53.370;-6.314;2023-10-09T08:43:51;11.30;;;6.90;;
29934;SDS011;19905;53.370;-6.314;2023-10-09T08:46:22;12.20;;;7.22;;
29934;SDS011;19905;53.370;-6.314;2023-10-09T08:48:54;12.98;;;6.40;;
29934;SDS011;19905;53.370;-6.314;2023-10-09T08:51:26;12.98;;;6.18;;
29934;SDS011;19905;53.370;-6.314;2023-10-09T08:53:56;12.30;;;6.43;;
29934;SDS011;19905;53.370;-6.314;2023-10-09T08:56:24;13.50;;;6.35;;
29934;SDS011;19905;53.370;-6.314;2023-10-09T08:58:55;12.48;;;6.30;;
29934;SDS011;19905;53.370;-6.314;2023-10-09T09:01:25;13.00;;;7.10;;
29934;SDS011;19905;53.370;-6.314;2023-10-09T09:03:58;11.60;;;7.10;;
29934;SDS011;19905;53.370;-6.314;2023-10-09T09:06:35;12.00;;;6.82;;
29934;SDS011;19905;53.370;-6.314;2023-10-09T09:09:09;12.63;;;7.10;;
29934;SDS011;19905;53.370;-6.314;2023-10-09T09:11:41;12.40;;;7.30;;
29934;SDS011;19905;53.370;-6.314;2023-10-09T09:14:17;12.38;;;7.32;;
29934;SDS011;19905;53.370;-6.314;2023-10-09T09:16:49;11.68;;;6.82;;
29934;SDS011;19905;53.370;-6.314;2023-10-09T09:19:19;14.80;;;7.00;;
29934;SDS011;19905;53.370;-6.314;2023-10-09T09:22:00;11.75;;;6.80;;
29934;SDS011;19905;53.370;-6.314;2023-10-09T09:24:39;12.40;;;6.57;;
29934;SDS011;19905;53.370;-6.314;2023-10-09T09:27:13;12.55;;;7.50;;
29934;SDS011;19905;53.370;-6.314;2023-10-09T09:29:46;12.07;;;7.18;;
29934;SDS011;19905;53.370;-6.314;2023-10-09T09:32:28;11.95;;;7.03;;
29934;SDS011;19905;53.370;-6.314;2023-10-09T09:35:03;15.25;;;6.85;;
29934;SDS011;19905;53.370;-6.314;2023-10-09T09:37:51;14.43;;;6.82;;
29934;SDS011;19905;53.370;-6.314;2023-10-09T09:40:21;13.25;;;7.68;;
29934;SDS011;19905;53.370;-6.314;2023-10-09T09:43:08;14.13;;;7.50;;
29934;SDS011;19905;53.370;-6.314;2023-10-09T09:45:49;13.25;;;7.53;;
29934;SDS011;19905;53.370;-6.314;2023-10-09T09:48:19;15.63;;;7.30;;
29934;SDS011;19905;53.370;-6.314;2023-10-09T09:50:52;18.77;;;8.07;;
29934;SDS011;19905;53.370;-6.314;2023-10-09T09:53:21;13.82;;;7.70;;
29934;SDS011;19905;53.370;-6.314;2023-10-09T09:55:52;12.57;;;7.13;;
29934;SDS011;19905;53.370;-6.314;2023-10-09T09:58:25;19.63;;;7.93;;
29934;SDS011;19905;53.370;-6.314;2023-10-09T10:01:02;14.90;;;7.57;;
29934;SDS011;19905;53.370;-6.314;2023-10-09T10:03:43;26.13;;;8.85;;
29934;SDS011;19905;53.370;-6.314;2023-10-09T10:06:17;16.55;;;8.77;;
29934;SDS011;19905;53.370;-6.314;2023-10-09T10:08:48;19.10;;;9.27;;
29934;SDS011;19905;53.370;-6.314;2023-10-09T10:14:12;14.50;;;7.50;;
29934;SDS011;19905;53.370;-6.314;2023-10-09T10:17:03;17.52;;;7.85;;
29934;SDS011;19905;53.370;-6.314;2023-10-09T10:20:04;16.27;;;8.05;;
29934;SDS011;19905;53.370;-6.314;2023-10-09T10:25:47;15.45;;;7.78;;
29934;SDS011;19905;53.370;-6.314;2023-10-09T10:28:27;14.98;;;7.72;;
29934;SDS011;19905;53.370;-6.314;2023-10-09T10:31:09;15.63;;;7.57;;
29934;SDS011;19905;53.370;-6.314;2023-10-09T10:36:37;16.98;;;8.38;;
29934;SDS011;19905;53.370;-6.314;2023-10-09T10:39:11;18.50;;;8.25;;
29934;SDS011;19905;53.370;-6.314;2023-10-09T10:41:55;18.10;;;8.20;;
29934;SDS011;19905;53.370;-6.314;2023-10-09T10:44:26;21.85;;;9.10;;
29934;SDS011;19905;53.370;-6.314;2023-10-09T10:47:04;17.27;;;8.45;;
29934;SDS011;19905;53.370;-6.314;2023-10-09T10:49:51;17.13;;;8.38;;
29934;SDS011;19905;53.370;-6.314;2023-10-09T10:52:25;17.27;;;9.15;;
29934;SDS011;19905;53.370;-6.314;2023-10-09T10:55:09;14.05;;;8.18;;
29934;SDS011;19905;53.370;-6.314;2023-10-09T10:57:58;20.48;;;8.55;;
29934;SDS011;19905;53.370;-6.314;2023-10-09T11:00:37;16.02;;;8.43;;
29934;SDS011;19905;53.370;-6.314;2023-10-09T11:03:22;14.65;;;8.18;;
29934;SDS011;19905;53.370;-6.314;2023-10-09T11:06:00;16.88;;;8.73;;
29934;SDS011;19905;53.370;-6.314;2023-10-09T11:08:43;15.50;;;7.90;;
29934;SDS011;19905;53.370;-6.314;2023-10-09T11:11:21;15.55;;;8.60;;
29934;SDS011;19905;53.370;-6.314;2023-10-09T11:13:50;17.27;;;8.55;;
29934;SDS011;19905;53.370;-6.314;2023-10-09T11:16:22;18.35;;;8.45;;
29934;SDS011;19905;53.370;-6.314;2023-10-09T11:19:09;16.40;;;7.93;;
29934;SDS011;19905;53.370;-6.314;2023-10-09T11:21:57;18.13;;;8.52;;
29934;SDS011;19905;53.370;-6.314;2023-10-09T11:24:48;15.85;;;7.72;;
29934;SDS011;19905;53.370;-6.314;2023-10-09T11:27:30;15.55;;;8.10;;
29934;SDS011;19905;53.370;-6.314;2023-10-09T11:30:06;17.10;;;7.63;;
29934;SDS011;19905;53.370;-6.314;2023-10-09T11:32:39;16.38;;;7.55;;
29934;SDS011;19905;53.370;-6.314;2023-10-09T11:35:10;14.68;;;7.90;;
29934;SDS011;19905;53.370;-6.314;2023-10-09T11:37:56;13.25;;;6.85;;
29934;SDS011;19905;53.370;-6.314;2023-10-09T11:40:27;13.57;;;7.35;;
29934;SDS011;19905;53.370;-6.314;2023-10-09T11:43:17;14.27;;;7.50;;
29934;SDS011;19905;53.370;-6.314;2023-10-09T11:46:08;16.10;;;7.65;;
29934;SDS011;19905;53.370;-6.314;2023-10-09T11:48:38;16.90;;;8.00;;
29934;SDS011;19905;53.370;-6.314;2023-10-09T11:51:14;11.90;;;8.00;;
29934;SDS011;19905;53.370;-6.314;2023-10-09T11:53:50;17.02;;;7.72;;
29934;SDS011;19905;53.370;-6.314;2023-10-09T11:56:21;19.13;;;7.70;;
29934;SDS011;19905;53.370;-6.314;2023-10-09T11:58:54;17.23;;;7.30;;
29934;SDS011;19905;53.370;-6.314;2023-10-09T12:01:25;16.02;;;8.15;;
29934;SDS011;19905;53.370;-6.314;2023-10-09T12:04:02;14.18;;;7.70;;
29934;SDS011;19905;53.370;-6.314;2023-10-09T12:06:35;16.60;;;7.78;;
29934;SDS011;19905;53.370;-6.314;2023-10-09T12:09:05;17.75;;;7.65;;
29934;SDS011;19905;53.370;-6.314;2023-10-09T12:11:42;15.52;;;7.60;;
29934;SDS011;19905;53.370;-6.314;2023-10-09T12:14:30;15.70;;;7.65;;
29934;SDS011;19905;53.370;-6.314;2023-10-09T12:17:00;17.63;;;8.93;;
29934;SDS011;19905;53.370;-6.314;2023-10-09T12:19:32;16.38;;;8.20;;
29934;SDS011;19905;53.370;-6.314;2023-10-09T12:22:01;17.65;;;8.10;;
29934;SDS011;19905;53.370;-6.314;2023-10-09T12:24:33;15.98;;;8.60;;
29934;SDS011;19905;53.370;-6.314;2023-10-09T12:27:02;15.82;;;7.93;;
29934;SDS011;19905;53.370;-6.314;2023-10-09T12:29:38;14.63;;;7.60;;
29934;SDS011;19905;53.370;-6.314;2023-10-09T12:32:15;15.25;;;8.10;;
29934;SDS011;19905;53.370;-6.314;2023-10-09T12:34:46;13.63;;;6.88;;
29934;SDS011;19905;53.370;-6.314;2023-10-09T12:37:17;16.70;;;7.18;;
29934;SDS011;19905;53.370;-6.314;2023-10-09T12:39:49;18.25;;;6.88;;
29934;SDS011;19905;53.370;-6.314;2023-10-09T12:42:22;13.77;;;7.10;;
29934;SDS011;19905;53.370;-6.314;2023-10-09T12:44:51;12.73;;;7.00;;
29934;SDS011;19905;53.370;-6.314;2023-10-09T12:47:19;15.13;;;7.00;;
29934;SDS011;19905;53.370;-6.314;2023-10-09T12:49:48;12.40;;;6.50;;
29934;SDS011;19905;53.370;-6.314;2023-10-09T12:52:20;16.65;;;6.80;;
29934;SDS011;19905;53.370;-6.314;2023-10-09T12:54:58;18.15;;;7.32;;
29934;SDS011;19905;53.370;-6.314;2023-10-09T12:57:26;15.68;;;6.35;;
29934;SDS011;19905;53.370;-6.314;2023-10-09T12:59:55;12.93;;;6.32;;
29934;SDS011;19905;53.370;-6.314;2023-10-09T13:02:23;10.43;;;5.82;;
29934;SDS011;19905;53.370;-6.314;2023-10-09T13:04:56;14.07;;;5.70;;
29934;SDS011;19905;53.370;-6.314;2023-10-09T13:07:27;10.18;;;5.10;;
29934;SDS011;19905;53.370;-6.314;2023-10-09T13:09:57;13.25;;;5.50;;
29934;SDS011;19905;53.370;-6.314;2023-10-09T13:12:41;15.65;;;6.13;;
29934;SDS011;19905;53.370;-6.314;2023-10-09T13:15:09;15.13;;;6.38;;
29934;SDS011;19905;53.370;-6.314;2023-10-09T13:17:40;13.23;;;6.18;;
29934;SDS011;19905;53.370;-6.314;2023-10-09T13:20:09;9.23;;;5.40;;
29934;SDS011;19905;53.370;-6.314;2023-10-09T13:22:41;12.50;;;5.28;;
29934;SDS011;19905;53.370;-6.314;2023-10-09T13:25:13;9.05;;;4.85;;
29934;SDS011;19905;53.370;-6.314;2023-10-09T13:28:00;7.60;;;4.75;;
29934;SDS011;19905;53.370;-6.314;2023-10-09T13:30:31;8.65;;;4.35;;
29934;SDS011;19905;53.370;-6.314;2023-10-09T13:33:07;9.40;;;5.13;;
29934;SDS011;19905;53.370;-6.314;2023-10-09T13:35:44;10.20;;;4.95;;
29934;SDS011;19905;53.370;-6.314;2023-10-09T13:38:17;10.43;;;5.10;;
29934;SDS011;19905;53.370;-6.314;2023-10-09T13:40:47;8.55;;;4.93;;
29934;SDS011;19905;53.370;-6.314;2023-10-09T13:43:16;11.05;;;5.10;;
29934;SDS011;19905;53.370;-6.314;2023-10-09T13:45:45;11.77;;;5.10;;
29934;SDS011;19905;53.370;-6.314;2023-10-09T13:48:18;9.73;;;5.80;;
29934;SDS011;19905;53.370;-6.314;2023-10-09T13:50:48;11.18;;;5.93;;
29934;SDS011;19905;53.370;-6.314;2023-10-09T13:53:19;13.48;;;5.85;;
29934;SDS011;19905;53.370;-6.314;2023-10-09T13:55:52;11.75;;;6.45;;
29934;SDS011;19905;53.370;-6.314;2023-10-09T13:58:23;16.05;;;6.43;;
29934;SDS011;19905;53.370;-6.314;2023-10-09T14:00:51;11.60;;;6.80;;
29934;SDS011;19905;53.370;-6.314;2023-10-09T14:03:20;10.98;;;6.82;;
29934;SDS011;19905;53.370;-6.314;2023-10-09T14:05:50;15.38;;;6.97;;
29934;SDS011;19905;53.370;-6.314;2023-10-09T14:08:24;13.43;;;6.45;;
29934;SDS011;19905;53.370;-6.314;2023-10-09T14:10:57;14.32;;;6.65;;
29934;SDS011;19905;53.370;-6.314;2023-10-09T14:13:26;14.10;;;6.70;;
29934;SDS011;19905;53.370;-6.314;2023-10-09T14:15:56;10.80;;;6.55;;
29934;SDS011;19905;53.370;-6.314;2023-10-09T14:18:27;14.57;;;6.65;;
29934;SDS011;19905;53.370;-6.314;2023-10-09T14:21:00;12.73;;;7.15;;
29934;SDS011;19905;53.370;-6.314;2023-10-09T14:23:31;14.68;;;6.88;;
29934;SDS011;19905;53.370;-6.314;2023-10-09T14:26:03;13.18;;;6.85;;
29934;SDS011;19905;53.370;-6.314;2023-10-09T14:28:33;11.73;;;7.47;;
29934;SDS011;19905;53.370;-6.314;2023-10-09T14:31:02;18.10;;;8.40;;
29934;SDS011;19905;53.370;-6.314;2023-10-09T14:33:33;19.05;;;8.52;;
29934;SDS011;19905;53.370;-6.314;2023-10-09T14:36:03;13.65;;;8.43;;
29934;SDS011;19905;53.370;-6.314;2023-10-09T14:38:34;13.68;;;8.60;;
29934;SDS011;19905;53.370;-6.314;2023-10-09T14:41:08;20.90;;;9.50;;
29934;SDS011;19905;53.370;-6.314;2023-10-09T14:43:39;12.25;;;8.85;;
29934;SDS011;19905;53.370;-6.314;2023-10-09T14:46:12;14.50;;;8.30;;
29934;SDS011;19905;53.370;-6.314;2023-10-09T14:48:41;14.30;;;8.00;;
29934;SDS011;19905;53.370;-6.314;2023-10-09T14:51:13;13.43;;;8.63;;
29934;SDS011;19905;53.370;-6.314;2023-10-09T14:53:42;13.07;;;8.68;;
29934;SDS011;19905;53.370;-6.314;2023-10-09T14:56:12;15.52;;;9.13;;
29934;SDS011;19905;53.370;-6.314;2023-10-09T14:58:43;14.40;;;9.77;;
29934;SDS011;19905;53.370;-6.314;2023-10-09T15:01:14;16.73;;;9.93;;
29934;SDS011;19905;53.370;-6.314;2023-10-09T15:03:46;14.02;;;9.85;;
29934;SDS011;19905;53.370;-6.314;2023-10-09T15:06:20;13.65;;;9.75;;
29934;SDS011;19905;53.370;-6.314;2023-10-09T15:08:50;13.35;;;9.00;;
29934;SDS011;19905;53.370;-6.314;2023-10-09T15:11:22;18.27;;;10.18;;
29934;SDS011;19905;53.370;-6.314;2023-10-09T15:13:52;15.38;;;10.18;;
29934;SDS011;19905;53.370;-6.314;2023-10-09T15:16:21;17.40;;;10.07;;
29934;SDS011;19905;53.370;-6.314;2023-10-09T15:18:54;16.23;;;10.43;;
29934;SDS011;19905;53.370;-6.314;2023-10-09T15:21:24;14.95;;;10.63;;
29934;SDS011;19905;53.370;-6.314;2023-10-09T15:23:54;14.43;;;10.02;;
29934;SDS011;19905;53.370;-6.314;2023-10-09T15:26:24;14.05;;;9.77;;
29934;SDS011;19905;53.370;-6.314;2023-10-09T15:29:01;13.40;;;10.20;;
29934;SDS011;19905;53.370;-6.314;2023-10-09T15:31:33;14.18;;;9.60;;
29934;SDS011;19905;53.370;-6.314;2023-10-09T15:34:02;12.68;;;9.25;;
29934;SDS011;19905;53.370;-6.314;2023-10-09T15:36:35;15.45;;;8.88;;
29934;SDS011;19905;53.370;-6.314;2023-10-09T15:39:03;13.05;;;8.05;;
29934;SDS011;19905;53.370;-6.314;2023-10-09T15:41:36;11.45;;;7.40;;
29934;SDS011;19905;53.370;-6.314;2023-10-09T15:44:06;11.10;;;7.47;;
29934;SDS011;19905;53.370;-6.314;2023-10-09T15:46:35;9.43;;;6.68;;
29934;SDS011;19905;53.370;-6.314;2023-10-09T15:49:03;9.02;;;6.72;;
29934;SDS011;19905;53.370;-6.314;2023-10-09T15:51:34;9.65;;;6.63;;
29934;SDS011;19905;53.370;-6.314;2023-10-09T15:54:02;10.40;;;6.43;;
29934;SDS011;19905;53.370;-6.314;2023-10-09T15:56:31;8.63;;;6.53;;
29934;SDS011;19905;53.370;-6.314;2023-10-09T15:59:02;8.90;;;6.57;;
29934;SDS011;19905;53.370;-6.314;2023-10-09T16:01:32;11.52;;;7.75;;
29934;SDS011;19905;53.370;-6.314;2023-10-09T16:04:02;14.68;;;7.80;;
29934;SDS011;19905;53.370;-6.314;2023-10-09T16:06:33;14.85;;;7.93;;
29934;SDS011;19905;53.370;-6.314;2023-10-09T16:09:01;11.52;;;7.47;;
29934;SDS011;19905;53.370;-6.314;2023-10-09T16:11:32;12.23;;;6.65;;
29934;SDS011;19905;53.370;-6.314;2023-10-09T16:14:01;10.57;;;6.53;;
29934;SDS011;19905;53.370;-6.314;2023-10-09T16:16:34;9.48;;;6.32;;
29934;SDS011;19905;53.370;-6.314;2023-10-09T16:19:09;9.57;;;6.60;;
29934;SDS011;19905;53.370;-6.314;2023-10-09T16:21:38;11.10;;;7.43;;
29934;SDS011;19905;53.370;-6.314;2023-10-09T16:24:07;8.50;;;6.80;;
29934;SDS011;19905;53.370;-6.314;2023-10-09T16:26:37;11.32;;;7.45;;
29934;SDS011;19905;53.370;-6.314;2023-10-09T16:29:10;9.35;;;7.20;;
29934;SDS011;19905;53.370;-6.314;2023-10-09T16:31:39;10.60;;;7.18;;
29934;SDS011;19905;53.370;-6.314;2023-10-09T16:34:08;9.75;;;6.57;;
29934;SDS011;19905;53.370;-6.314;2023-10-09T16:36:41;9.45;;;6.60;;
29934;SDS011;19905;53.370;-6.314;2023-10-09T16:39:10;10.90;;;7.25;;
29934;SDS011;19905;53.370;-6.314;2023-10-09T16:41:45;8.95;;;6.43;;
29934;SDS011;19905;53.370;-6.314;2023-10-09T16:44:15;9.75;;;6.45;;
29934;SDS011;19905;53.370;-6.314;2023-10-09T16:46:44;12.50;;;6.88;;
29934;SDS011;19905;53.370;-6.314;2023-10-09T16:49:13;14.88;;;6.55;;
29934;SDS011;19905;53.370;-6.314;2023-10-09T16:51:45;10.57;;;6.47;;
29934;SDS011;19905;53.370;-6.314;2023-10-09T16:54:14;9.38;;;6.43;;
29934;SDS011;19905;53.370;-6.314;2023-10-09T16:56:42;9.23;;;6.20;;
29934;SDS011;19905;53.370;-6.314;2023-10-09T16:59:11;10.23;;;6.88;;
29934;SDS011;19905;53.370;-6.314;2023-10-09T17:01:43;9.80;;;6.05;;
29934;SDS011;19905;53.370;-6.314;2023-10-09T17:04:12;9.40;;;6.57;;
29934;SDS011;19905;53.370;-6.314;2023-10-09T17:06:44;9.82;;;6.18;;
29934;SDS011;19905;53.370;-6.314;2023-10-09T17:09:14;11.88;;;6.40;;
29934;SDS011;19905;53.370;-6.314;2023-10-09T17:11:47;13.13;;;6.63;;
29934;SDS011;19905;53.370;-6.314;2023-10-09T17:14:19;9.23;;;6.55;;
29934;SDS011;19905;53.370;-6.314;2023-10-09T17:16:54;10.55;;;6.18;;
29934;SDS011;19905;53.370;-6.314;2023-10-09T17:19:24;9.13;;;6.40;;
29934;SDS011;19905;53.370;-6.314;2023-10-09T17:21:53;12.75;;;6.32;;
29934;SDS011;19905;53.370;-6.314;2023-10-09T17:24:24;10.43;;;6.57;;
29934;SDS011;19905;53.370;-6.314;2023-10-09T17:26:52;9.45;;;6.13;;
29934;SDS011;19905;53.370;-6.314;2023-10-09T17:29:22;12.88;;;6.35;;
29934;SDS011;19905;53.370;-6.314;2023-10-09T17:31:55;9.20;;;5.93;;
29934;SDS011;19905;53.370;-6.314;2023-10-09T17:34:23;10.35;;;6.50;;
29934;SDS011;19905;53.370;-6.314;2023-10-09T17:36:53;11.15;;;6.70;;
29934;SDS011;19905;53.370;-6.314;2023-10-09T17:39:24;11.77;;;7.10;;
29934;SDS011;19905;53.370;-6.314;2023-10-09T17:41:53;9.55;;;6.60;;
29934;SDS011;19905;53.370;-6.314;2023-10-09T17:44:23;12.70;;;6.57;;
29934;SDS011;19905;53.370;-6.314;2023-10-09T17:46:51;11.32;;;6.45;;
29934;SDS011;19905;53.370;-6.314;2023-10-09T17:49:21;13.05;;;6.68;;
29934;SDS011;19905;53.370;-6.314;2023-10-09T17:51:51;11.35;;;6.80;;
29934;SDS011;19905;53.370;-6.314;2023-10-09T17:54:19;12.90;;;7.80;;
29934;SDS011;19905;53.370;-6.314;2023-10-09T17:56:50;15.77;;;8.35;;
29934;SDS011;19905;53.370;-6.314;2023-10-09T17:59:22;14.07;;;8.05;;
29934;SDS011;19905;53.370;-6.314;2023-10-09T18:01:54;15.98;;;8.27;;
29934;SDS011;19905;53.370;-6.314;2023-10-09T18:04:25;13.48;;;7.55;;
29934;SDS011;19905;53.370;-6.314;2023-10-09T18:06:54;14.82;;;7.85;;
29934;SDS011;19905;53.370;-6.314;2023-10-09T18:09:23;16.35;;;8.82;;
29934;SDS011;19905;53.370;-6.314;2023-10-09T18:11:57;14.57;;;7.82;;
29934;SDS011;19905;53.370;-6.314;2023-10-09T18:14:28;17.30;;;9.13;;
29934;SDS011;19905;53.370;-6.314;2023-10-09T18:16:59;16.48;;;8.77;;
29934;SDS011;19905;53.370;-6.314;2023-10-09T18:19:30;13.45;;;7.65;;
29934;SDS011;19905;53.370;-6.314;2023-10-09T18:21:59;18.02;;;7.97;;
29934;SDS011;19905;53.370;-6.314;2023-10-09T18:24:28;14.00;;;7.38;;
29934;SDS011;19905;53.370;-6.314;2023-10-09T18:27:03;10.88;;;6.95;;
29934;SDS011;19905;53.370;-6.314;2023-10-09T18:29:31;16.98;;;6.75;;
29934;SDS011;19905;53.370;-6.314;2023-10-09T18:32:00;12.93;;;6.82;;
29934;SDS011;19905;53.370;-6.314;2023-10-09T18:34:30;12.38;;;6.78;;
29934;SDS011;19905;53.370;-6.314;2023-10-09T18:36:58;12.85;;;4.93;;
29934;SDS011;19905;53.370;-6.314;2023-10-09T18:39:27;10.98;;;5.47;;
29934;SDS011;19905;53.370;-6.314;2023-10-09T18:41:57;11.73;;;6.00;;
29934;SDS011;19905;53.370;-6.314;2023-10-09T18:44:26;13.75;;;6.57;;
29934;SDS011;19905;53.370;-6.314;2023-10-09T18:46:56;13.45;;;6.13;;
29934;SDS011;19905;53.370;-6.314;2023-10-09T18:49:26;12.15;;;5.65;;
29934;SDS011;19905;53.370;-6.314;2023-10-09T18:51:57;17.30;;;5.70;;
29934;SDS011;19905;53.370;-6.314;2023-10-09T18:54:26;13.52;;;5.50;;
29934;SDS011;19905;53.370;-6.314;2023-10-09T18:56:55;15.70;;;5.13;;
29934;SDS011;19905;53.370;-6.314;2023-10-09T18:59:23;13.18;;;7.07;;
29934;SDS011;19905;53.370;-6.314;2023-10-09T19:01:52;10.73;;;6.95;;
29934;SDS011;19905;53.370;-6.314;2023-10-09T19:04:20;14.00;;;7.22;;
29934;SDS011;19905;53.370;-6.314;2023-10-09T19:06:49;15.10;;;7.75;;
29934;SDS011;19905;53.370;-6.314;2023-10-09T19:09:20;13.70;;;8.50;;
29934;SDS011;19905;53.370;-6.314;2023-10-09T19:11:49;20.58;;;8.80;;
29934;SDS011;19905;53.370;-6.314;2023-10-09T19:14:18;19.48;;;8.88;;
29934;SDS011;19905;53.370;-6.314;2023-10-09T19:16:46;21.52;;;9.02;;
29934;SDS011;19905;53.370;-6.314;2023-10-09T19:19:16;28.08;;;9.15;;
29934;SDS011;19905;53.370;-6.314;2023-10-09T19:21:44;21.45;;;8.90;;
29934;SDS011;19905;53.370;-6.314;2023-10-09T19:24:13;20.50;;;9.23;;
29934;SDS011;19905;53.370;-6.314;2023-10-09T19:26:44;16.95;;;8.88;;
29934;SDS011;19905;53.370;-6.314;2023-10-09T19:29:12;17.73;;;8.98;;
29934;SDS011;19905;53.370;-6.314;2023-10-09T19:31:42;20.17;;;9.02;;
29934;SDS011;19905;53.370;-6.314;2023-10-09T19:34:11;18.60;;;9.20;;
29934;SDS011;19905;53.370;-6.314;2023-10-09T19:36:43;33.03;;;17.20;;
29934;SDS011;19905;53.370;-6.314;2023-10-09T19:39:14;55.50;;;32.53;;
29934;SDS011;19905;53.370;-6.314;2023-10-09T19:41:45;37.67;;;20.35;;
29934;SDS011;19905;53.370;-6.314;2023-10-09T19:44:15;28.33;;;15.40;;
29934;SDS011;19905;53.370;-6.314;2023-10-09T19:46:44;19.08;;;10.05;;
29934;SDS011;19905;53.370;-6.314;2023-10-09T19:49:14;18.73;;;8.40;;
29934;SDS011;19905;53.370;-6.314;2023-10-09T19:51:44;16.70;;;8.90;;
29934;SDS011;19905;53.370;-6.314;2023-10-09T19:54:14;21.65;;;10.23;;
29934;SDS011;19905;53.370;-6.314;2023-10-09T19:56:46;21.20;;;9.20;;
29934;SDS011;19905;53.370;-6.314;2023-10-09T19:59:14;16.98;;;9.15;;
29934;SDS011;19905;53.370;-6.314;2023-10-09T20:01:44;17.33;;;9.88;;
29934;SDS011;19905;53.370;-6.314;2023-10-09T20:04:12;23.27;;;11.50;;
29934;SDS011;19905;53.370;-6.314;2023-10-09T20:06:42;22.05;;;10.88;;
29934;SDS011;19905;53.370;-6.314;2023-10-09T20:09:12;22.50;;;11.77;;
29934;SDS011;19905;53.370;-6.314;2023-10-09T20:11:41;23.55;;;11.13;;
29934;SDS011;19905;53.370;-6.314;2023-10-09T20:14:14;21.10;;;10.20;;
29934;SDS011;19905;53.370;-6.314;2023-10-09T20:16:46;20.50;;;8.50;;
29934;SDS011;19905;53.370;-6.314;2023-10-09T20:19:15;16.45;;;8.85;;
29934;SDS011;19905;53.370;-6.314;2023-10-09T20:21:44;18.30;;;8.55;;
29934;SDS011;19905;53.370;-6.314;2023-10-09T20:24:12;17.85;;;8.70;;
29934;SDS011;19905;53.370;-6.314;2023-10-09T20:26:41;16.73;;;8.70;;
29934;SDS011;19905;53.370;-6.314;2023-10-09T20:29:11;16.23;;;9.27;;
29934;SDS011;19905;53.370;-6.314;2023-10-09T20:31:41;17.90;;;9.52;;
29934;SDS011;19905;53.370;-6.314;2023-10-09T20:34:12;21.55;;;12.60;;
29934;SDS011;19905;53.370;-6.314;2023-10-09T20:36:40;19.85;;;9.43;;
29934;SDS011;19905;53.370;-6.314;2023-10-09T20:39:10;19.60;;;10.18;;
29934;SDS011;19905;53.370;-6.314;2023-10-09T20:41:41;20.42;;;9.55;;
29934;SDS011;19905;53.370;-6.314;2023-10-09T20:44:09;19.77;;;9.57;;
29934;SDS011;19905;53.370;-6.314;2023-10-09T20:46:43;23.60;;;10.68;;
29934;SDS011;19905;53.370;-6.314;2023-10-09T20:49:15;22.30;;;10.48;;
29934;SDS011;19905;53.370;-6.314;2023-10-09T20:51:44;19.85;;;9.43;;
29934;SDS011;19905;53.370;-6.314;2023-10-09T20:54:24;21.10;;;9.13;;
29934;SDS011;19905;53.370;-6.314;2023-10-09T20:56:53;19.33;;;9.50;;
29934;SDS011;19905;53.370;-6.314;2023-10-09T20:59:22;22.55;;;9.90;;
29934;SDS011;19905;53.370;-6.314;2023-10-09T21:01:53;19.25;;;9.65;;
29934;SDS011;19905;53.370;-6.314;2023-10-09T21:04:22;19.23;;;9.05;;
29934;SDS011;19905;53.370;-6.314;2023-10-09T21:06:51;20.50;;;10.18;;
29934;SDS011;19905;53.370;-6.314;2023-10-09T21:09:20;25.40;;;9.20;;
29934;SDS011;19905;53.370;-6.314;2023-10-09T21:11:48;18.98;;;8.15;;
29934;SDS011;19905;53.370;-6.314;2023-10-09T21:14:18;20.95;;;8.10;;